sensor_id;sensor_type;location;lat;lon;timestamp;temperature;humidity
78704;SHT31;68034;51.966;5.676;2023-03-31T00:03:52;13.7;68.1
78704;SHT31;68034;51.966;5.676;2023-03-31T00:08:56;13.7;68.3
78704;SHT31;68034;51.966;5.676;2023-03-31T00:13:43;13.8;68.4
78704;SHT31;68034;51.966;5.676;2023-03-31T00:16:26;13.8;68.3
78704;SHT31;68034;51.966;5.676;2023-03-31T00:19:06;13.8;68.2
78704;SHT31;68034;51.966;5.676;2023-03-31T00:21:45;13.8;68.2
78704;SHT31;68034;51.966;5.676;2023-03-31T00:25:03;13.8;68.4
78704;SHT31;68034;51.966;5.676;2023-03-31T00:27:45;13.8;68.5
78704;SHT31;68034;51.966;5.676;2023-03-31T00:30:22;13.8;68.6
78704;SHT31;68034;51.966;5.676;2023-03-31T00:34:27;13.8;68.8
78704;SHT31;68034;51.966;5.676;2023-03-31T00:37:09;13.8;68.6
78704;SHT31;68034;51.966;5.676;2023-03-31T00:39:52;13.8;68.7
78704;SHT31;68034;51.966;5.676;2023-03-31T00:43:13;13.8;68.9
78704;SHT31;68034;51.966;5.676;2023-03-31T00:46:09;13.8;69.5
78704;SHT31;68034;51.966;5.676;2023-03-31T00:48:54;13.8;69.4
78704;SHT31;68034;51.966;5.676;2023-03-31T00:54:11;13.7;70.3
78704;SHT31;68034;51.966;5.676;2023-03-31T00:56:57;13.7;70.8
78704;SHT31;68034;51.966;5.676;2023-03-31T00:59:38;13.6;71.4
78704;SHT31;68034;51.966;5.676;2023-03-31T01:02:36;13.6;72.3
78704;SHT31;68034;51.966;5.676;2023-03-31T01:05:17;13.6;72.7
78704;SHT31;68034;51.966;5.676;2023-03-31T01:16:30;13.4;73.2
78704;SHT31;68034;51.966;5.676;2023-03-31T01:19:19;13.4;73.2
78704;SHT31;68034;51.966;5.676;2023-03-31T01:36:08;13.4;73.1
78704;SHT31;68034;51.966;5.676;2023-03-31T01:51:00;13.4;72.3
78704;SHT31;68034;51.966;5.676;2023-03-31T01:58:49;13.4;72.1
78704;SHT31;68034;51.966;5.676;2023-03-31T02:01:36;13.4;72.3
78704;SHT31;68034;51.966;5.676;2023-03-31T02:05:52;13.4;72.7
78704;SHT31;68034;51.966;5.676;2023-03-31T02:26:48;13.2;73.1
78704;SHT31;68034;51.966;5.676;2023-03-31T02:44:19;13.2;73.9
78704;SHT31;68034;51.966;5.676;2023-03-31T02:47:11;13.2;74.3
78704;SHT31;68034;51.966;5.676;2023-03-31T03:21:34;13.1;74.0
78704;SHT31;68034;51.966;5.676;2023-03-31T03:24:33;13.1;73.3
78704;SHT31;68034;51.966;5.676;2023-03-31T03:42:29;13.0;74.3
78704;SHT31;68034;51.966;5.676;2023-03-31T03:57:44;13.3;74.2
78704;SHT31;68034;51.966;5.676;2023-03-31T04:00:32;13.4;73.8
78704;SHT31;68034;51.966;5.676;2023-03-31T04:15:50;13.5;73.5
78704;SHT31;68034;51.966;5.676;2023-03-31T06:24:07;13.5;69.9
78704;SHT31;68034;51.966;5.676;2023-03-31T06:29:49;13.4;70.6
78704;SHT31;68034;51.966;5.676;2023-03-31T06:33:12;13.3;71.6
78704;SHT31;68034;51.966;5.676;2023-03-31T06:42:36;13.1;72.3
78704;SHT31;68034;51.966;5.676;2023-03-31T06:47:20;13.1;72.2
78704;SHT31;68034;51.966;5.676;2023-03-31T06:51:58;13.0;72.4
78704;SHT31;68034;51.966;5.676;2023-03-31T06:54:32;13.0;72.9
78704;SHT31;68034;51.966;5.676;2023-03-31T07:16:52;12.8;74.9
78704;SHT31;68034;51.966;5.676;2023-03-31T07:19:43;12.8;75.2
78704;SHT31;68034;51.966;5.676;2023-03-31T07:27:20;12.7;76.4
78704;SHT31;68034;51.966;5.676;2023-03-31T07:32:15;12.8;76.3
78704;SHT31;68034;51.966;5.676;2023-03-31T07:37:09;12.8;76.2
78704;SHT31;68034;51.966;5.676;2023-03-31T07:47:08;13.1;75.9
78704;SHT31;68034;51.966;5.676;2023-03-31T07:53:09;13.2;75.3
78704;SHT31;68034;51.966;5.676;2023-03-31T07:55:48;13.2;75.6
78704;SHT31;68034;51.966;5.676;2023-03-31T07:58:29;13.3;75.3
78704;SHT31;68034;51.966;5.676;2023-03-31T08:01:20;13.4;75.2
78704;SHT31;68034;51.966;5.676;2023-03-31T08:03:53;13.4;74.6
78704;SHT31;68034;51.966;5.676;2023-03-31T08:06:24;13.5;74.4
78704;SHT31;68034;51.966;5.676;2023-03-31T08:08:54;13.4;74.2
78704;SHT31;68034;51.966;5.676;2023-03-31T08:11:41;13.4;74.7
78704;SHT31;68034;51.966;5.676;2023-03-31T08:14:16;13.4;74.6
78704;SHT31;68034;51.966;5.676;2023-03-31T08:16:48;13.4;74.7
78704;SHT31;68034;51.966;5.676;2023-03-31T08:19:36;13.3;74.2
78704;SHT31;68034;51.966;5.676;2023-03-31T08:22:19;13.3;75.0
78704;SHT31;68034;51.966;5.676;2023-03-31T08:24:59;13.2;75.4
78704;SHT31;68034;51.966;5.676;2023-03-31T08:27:38;13.2;75.6
78704;SHT31;68034;51.966;5.676;2023-03-31T08:30:18;13.2;75.9
78704;SHT31;68034;51.966;5.676;2023-03-31T08:32:55;13.1;76.6
78704;SHT31;68034;51.966;5.676;2023-03-31T08:35:34;13.1;77.1
78704;SHT31;68034;51.966;5.676;2023-03-31T08:41:23;13.1;76.7
78704;SHT31;68034;51.966;5.676;2023-03-31T08:44:12;13.1;77.3
78704;SHT31;68034;51.966;5.676;2023-03-31T08:46:47;13.1;77.6
78704;SHT31;68034;51.966;5.676;2023-03-31T08:49:30;13.2;78.7
78704;SHT31;68034;51.966;5.676;2023-03-31T08:52:35;13.2;78.0
78704;SHT31;68034;51.966;5.676;2023-03-31T08:55:09;13.2;78.7
78704;SHT31;68034;51.966;5.676;2023-03-31T08:58:00;13.2;78.8
78704;SHT31;68034;51.966;5.676;2023-03-31T09:00:54;13.3;78.1
78704;SHT31;68034;51.966;5.676;2023-03-31T09:03:45;13.3;77.8
78704;SHT31;68034;51.966;5.676;2023-03-31T09:06:23;13.4;78.2
78704;SHT31;68034;51.966;5.676;2023-03-31T09:09:38;13.4;77.5
78704;SHT31;68034;51.966;5.676;2023-03-31T09:12:39;13.4;77.6
78704;SHT31;68034;51.966;5.676;2023-03-31T09:20:37;13.4;77.2
78704;SHT31;68034;51.966;5.676;2023-03-31T09:23:23;13.4;77.4
78704;SHT31;68034;51.966;5.676;2023-03-31T09:32:19;13.5;78.1
78704;SHT31;68034;51.966;5.676;2023-03-31T09:34:55;13.5;76.6
78704;SHT31;68034;51.966;5.676;2023-03-31T09:37:30;13.6;77.0
78704;SHT31;68034;51.966;5.676;2023-03-31T09:40:04;13.6;76.1
78704;SHT31;68034;51.966;5.676;2023-03-31T09:42:58;13.6;76.4
78704;SHT31;68034;51.966;5.676;2023-03-31T09:45:32;13.6;76.3
78704;SHT31;68034;51.966;5.676;2023-03-31T09:48:12;13.6;74.9
78704;SHT31;68034;51.966;5.676;2023-03-31T09:50:56;13.7;74.7
78704;SHT31;68034;51.966;5.676;2023-03-31T09:53:33;13.7;75.2
78704;SHT31;68034;51.966;5.676;2023-03-31T09:56:48;13.7;74.6
78704;SHT31;68034;51.966;5.676;2023-03-31T09:59:30;13.8;74.4
78704;SHT31;68034;51.966;5.676;2023-03-31T10:07:11;13.8;71.8
78704;SHT31;68034;51.966;5.676;2023-03-31T10:09:47;13.9;71.7
78704;SHT31;68034;51.966;5.676;2023-03-31T10:12:27;13.9;71.8
78704;SHT31;68034;51.966;5.676;2023-03-31T10:15:36;13.9;72.3
78704;SHT31;68034;51.966;5.676;2023-03-31T10:18:13;13.9;71.9
78704;SHT31;68034;51.966;5.676;2023-03-31T10:20:49;13.9;71.4
78704;SHT31;68034;51.966;5.676;2023-03-31T10:23:28;13.8;72.1
78704;SHT31;68034;51.966;5.676;2023-03-31T10:26:14;13.9;70.9
78704;SHT31;68034;51.966;5.676;2023-03-31T10:29:11;13.9;72.7
78704;SHT31;68034;51.966;5.676;2023-03-31T10:32:20;13.9;70.6
78704;SHT31;68034;51.966;5.676;2023-03-31T10:35:38;14.0;71.3
78704;SHT31;68034;51.966;5.676;2023-03-31T10:38:21;14.1;70.2
78704;SHT31;68034;51.966;5.676;2023-03-31T10:40:55;14.1;70.3
78704;SHT31;68034;51.966;5.676;2023-03-31T10:43:28;14.2;69.8
78704;SHT31;68034;51.966;5.676;2023-03-31T10:46:16;14.3;69.6
78704;SHT31;68034;51.966;5.676;2023-03-31T10:48:50;14.3;68.8
78704;SHT31;68034;51.966;5.676;2023-03-31T10:51:24;14.4;69.7
78704;SHT31;68034;51.966;5.676;2023-03-31T10:54:00;14.4;68.9
78704;SHT31;68034;51.966;5.676;2023-03-31T10:56:46;14.5;68.3
78704;SHT31;68034;51.966;5.676;2023-03-31T10:59:27;14.5;69.0
78704;SHT31;68034;51.966;5.676;2023-03-31T11:05:26;14.6;67.5
78704;SHT31;68034;51.966;5.676;2023-03-31T11:08:36;14.6;66.7
78704;SHT31;68034;51.966;5.676;2023-03-31T11:11:33;14.7;66.9
78704;SHT31;68034;51.966;5.676;2023-03-31T11:14:19;14.7;67.4
78704;SHT31;68034;51.966;5.676;2023-03-31T11:16:55;14.7;68.6
78704;SHT31;68034;51.966;5.676;2023-03-31T11:19:38;14.7;68.8
78704;SHT31;68034;51.966;5.676;2023-03-31T11:22:24;14.7;67.7
78704;SHT31;68034;51.966;5.676;2023-03-31T11:25:09;14.7;67.1
78704;SHT31;68034;51.966;5.676;2023-03-31T11:28:09;14.7;66.9
78704;SHT31;68034;51.966;5.676;2023-03-31T11:30:48;14.7;65.8
78704;SHT31;68034;51.966;5.676;2023-03-31T11:33:47;14.7;66.6
78704;SHT31;68034;51.966;5.676;2023-03-31T11:36:32;14.7;68.6
78704;SHT31;68034;51.966;5.676;2023-03-31T11:39:23;14.7;66.5
78704;SHT31;68034;51.966;5.676;2023-03-31T11:41:58;14.7;67.1
78704;SHT31;68034;51.966;5.676;2023-03-31T11:44:41;14.7;67.3
78704;SHT31;68034;51.966;5.676;2023-03-31T11:47:16;14.8;65.7
78704;SHT31;68034;51.966;5.676;2023-03-31T11:49:54;14.7;66.4
78704;SHT31;68034;51.966;5.676;2023-03-31T11:52:28;14.7;66.1
78704;SHT31;68034;51.966;5.676;2023-03-31T11:55:05;14.7;66.5
78704;SHT31;68034;51.966;5.676;2023-03-31T11:57:45;14.7;66.3
78704;SHT31;68034;51.966;5.676;2023-03-31T12:00:30;14.7;65.4
78704;SHT31;68034;51.966;5.676;2023-03-31T12:03:11;14.7;66.6
78704;SHT31;68034;51.966;5.676;2023-03-31T12:05:50;14.7;66.6
78704;SHT31;68034;51.966;5.676;2023-03-31T12:08:29;14.7;66.7
78704;SHT31;68034;51.966;5.676;2023-03-31T12:11:08;14.7;65.8
78704;SHT31;68034;51.966;5.676;2023-03-31T12:13:46;14.7;66.6
78704;SHT31;68034;51.966;5.676;2023-03-31T12:16:22;14.7;65.6
78704;SHT31;68034;51.966;5.676;2023-03-31T12:19:03;14.7;65.7
78704;SHT31;68034;51.966;5.676;2023-03-31T12:21:43;14.6;65.3
78704;SHT31;68034;51.966;5.676;2023-03-31T12:24:18;14.6;65.3
78704;SHT31;68034;51.966;5.676;2023-03-31T12:26:59;14.6;66.8
78704;SHT31;68034;51.966;5.676;2023-03-31T12:29:39;14.6;67.0
78704;SHT31;68034;51.966;5.676;2023-03-31T12:32:16;14.5;67.9
78704;SHT31;68034;51.966;5.676;2023-03-31T12:34:53;14.5;68.0
78704;SHT31;68034;51.966;5.676;2023-03-31T12:37:51;14.5;66.6
78704;SHT31;68034;51.966;5.676;2023-03-31T12:40:36;14.4;68.0
78704;SHT31;68034;51.966;5.676;2023-03-31T12:43:41;14.4;68.0
78704;SHT31;68034;51.966;5.676;2023-03-31T12:46:30;14.3;67.8
78704;SHT31;68034;51.966;5.676;2023-03-31T12:49:12;14.3;69.1
78704;SHT31;68034;51.966;5.676;2023-03-31T12:51:57;14.3;69.9
78704;SHT31;68034;51.966;5.676;2023-03-31T13:04:52;14.5;70.7
78704;SHT31;68034;51.966;5.676;2023-03-31T13:07:56;14.5;69.3
78704;SHT31;68034;51.966;5.676;2023-03-31T13:10:34;14.5;69.4
78704;SHT31;68034;51.966;5.676;2023-03-31T13:13:59;14.5;68.9
78704;SHT31;68034;51.966;5.676;2023-03-31T13:17:12;14.4;68.9
78704;SHT31;68034;51.966;5.676;2023-03-31T13:20:25;14.4;67.1
78704;SHT31;68034;51.966;5.676;2023-03-31T13:23:02;14.4;67.7
78704;SHT31;68034;51.966;5.676;2023-03-31T13:25:51;14.4;67.7
78704;SHT31;68034;51.966;5.676;2023-03-31T13:28:39;14.4;67.5
78704;SHT31;68034;51.966;5.676;2023-03-31T13:34:34;14.4;68.8
78704;SHT31;68034;51.966;5.676;2023-03-31T13:37:18;14.4;68.9
78704;SHT31;68034;51.966;5.676;2023-03-31T13:40:47;14.4;67.7
78704;SHT31;68034;51.966;5.676;2023-03-31T13:44:14;14.3;67.5
78704;SHT31;68034;51.966;5.676;2023-03-31T13:47:30;14.4;66.2
78704;SHT31;68034;51.966;5.676;2023-03-31T13:50:13;14.4;68.8
78704;SHT31;68034;51.966;5.676;2023-03-31T13:52:54;14.3;70.7
78704;SHT31;68034;51.966;5.676;2023-03-31T13:56:00;14.3;71.0
78704;SHT31;68034;51.966;5.676;2023-03-31T13:58:55;14.3;71.3
78704;SHT31;68034;51.966;5.676;2023-03-31T14:02:18;14.3;71.7
78704;SHT31;68034;51.966;5.676;2023-03-31T14:05:10;14.2;71.9
78704;SHT31;68034;51.966;5.676;2023-03-31T14:07:45;14.1;71.8
78704;SHT31;68034;51.966;5.676;2023-03-31T14:10:30;14.1;73.0
78704;SHT31;68034;51.966;5.676;2023-03-31T14:13:08;14.0;74.2
78704;SHT31;68034;51.966;5.676;2023-03-31T14:15:42;13.9;75.2
78704;SHT31;68034;51.966;5.676;2023-03-31T14:18:19;13.9;75.0
78704;SHT31;68034;51.966;5.676;2023-03-31T14:21:06;13.8;75.1
78704;SHT31;68034;51.966;5.676;2023-03-31T14:23:52;13.7;76.5
78704;SHT31;68034;51.966;5.676;2023-03-31T14:26:44;13.7;76.1
78704;SHT31;68034;51.966;5.676;2023-03-31T14:29:20;13.6;75.9
78704;SHT31;68034;51.966;5.676;2023-03-31T14:32:03;13.6;74.4
78704;SHT31;68034;51.966;5.676;2023-03-31T14:34:52;13.6;76.3
78704;SHT31;68034;51.966;5.676;2023-03-31T14:37:26;13.6;75.1
78704;SHT31;68034;51.966;5.676;2023-03-31T14:39:57;13.5;75.5
78704;SHT31;68034;51.966;5.676;2023-03-31T14:42:37;13.5;75.2
78704;SHT31;68034;51.966;5.676;2023-03-31T14:45:16;13.5;75.4
78704;SHT31;68034;51.966;5.676;2023-03-31T14:48:07;13.4;75.7
78704;SHT31;68034;51.966;5.676;2023-03-31T14:50:34;13.4;75.9
78704;SHT31;68034;51.966;5.676;2023-03-31T14:53:04;13.4;75.8
78704;SHT31;68034;51.966;5.676;2023-03-31T14:55:40;13.4;74.5
78704;SHT31;68034;51.966;5.676;2023-03-31T14:58:25;13.4;75.3
78704;SHT31;68034;51.966;5.676;2023-03-31T15:00:58;13.4;74.6
78704;SHT31;68034;51.966;5.676;2023-03-31T15:03:36;13.3;74.7
78704;SHT31;68034;51.966;5.676;2023-03-31T15:06:10;13.3;74.3
78704;SHT31;68034;51.966;5.676;2023-03-31T15:08:39;13.3;74.1
78704;SHT31;68034;51.966;5.676;2023-03-31T15:11:14;13.3;74.1
78704;SHT31;68034;51.966;5.676;2023-03-31T15:13:50;13.3;73.4
78704;SHT31;68034;51.966;5.676;2023-03-31T15:16:25;13.3;73.9
78704;SHT31;68034;51.966;5.676;2023-03-31T15:19:12;13.2;74.6
78704;SHT31;68034;51.966;5.676;2023-03-31T15:21:43;13.2;75.4
78704;SHT31;68034;51.966;5.676;2023-03-31T15:24:17;13.2;75.7
78704;SHT31;68034;51.966;5.676;2023-03-31T15:26:51;13.2;75.4
78704;SHT31;68034;51.966;5.676;2023-03-31T15:29:31;13.2;76.0
78704;SHT31;68034;51.966;5.676;2023-03-31T15:32:07;13.2;77.0
78704;SHT31;68034;51.966;5.676;2023-03-31T15:34:43;13.2;76.7
78704;SHT31;68034;51.966;5.676;2023-03-31T15:37:14;13.2;77.2
78704;SHT31;68034;51.966;5.676;2023-03-31T15:39:48;13.2;77.3
78704;SHT31;68034;51.966;5.676;2023-03-31T15:42:17;13.2;76.3
78704;SHT31;68034;51.966;5.676;2023-03-31T15:44:55;13.2;77.1
78704;SHT31;68034;51.966;5.676;2023-03-31T15:47:27;13.1;76.6
78704;SHT31;68034;51.966;5.676;2023-03-31T15:50:07;13.1;76.9
78704;SHT31;68034;51.966;5.676;2023-03-31T15:52:47;13.1;76.3
78704;SHT31;68034;51.966;5.676;2023-03-31T15:55:27;13.1;77.2
78704;SHT31;68034;51.966;5.676;2023-03-31T15:57:59;13.1;77.2
78704;SHT31;68034;51.966;5.676;2023-03-31T16:00:44;13.1;76.8
78704;SHT31;68034;51.966;5.676;2023-03-31T16:03:27;13.1;76.7
78704;SHT31;68034;51.966;5.676;2023-03-31T16:06:00;13.1;76.8
78704;SHT31;68034;51.966;5.676;2023-03-31T16:08:39;13.0;76.9
78704;SHT31;68034;51.966;5.676;2023-03-31T16:11:14;13.0;76.3
78704;SHT31;68034;51.966;5.676;2023-03-31T16:13:48;13.0;76.3
78704;SHT31;68034;51.966;5.676;2023-03-31T16:16:22;13.0;76.3
78704;SHT31;68034;51.966;5.676;2023-03-31T16:19:00;13.0;76.2
78704;SHT31;68034;51.966;5.676;2023-03-31T16:21:40;13.0;76.4
78704;SHT31;68034;51.966;5.676;2023-03-31T16:24:10;13.0;75.4
78704;SHT31;68034;51.966;5.676;2023-03-31T16:26:41;12.9;74.8
78704;SHT31;68034;51.966;5.676;2023-03-31T16:29:31;12.9;75.4
78704;SHT31;68034;51.966;5.676;2023-03-31T16:32:09;12.9;75.1
78704;SHT31;68034;51.966;5.676;2023-03-31T16:34:52;12.9;75.6
78704;SHT31;68034;51.966;5.676;2023-03-31T16:37:23;12.9;75.8
78704;SHT31;68034;51.966;5.676;2023-03-31T16:39:56;12.9;75.3
78704;SHT31;68034;51.966;5.676;2023-03-31T16:42:26;12.8;75.5
78704;SHT31;68034;51.966;5.676;2023-03-31T16:44:56;12.8;75.4
78704;SHT31;68034;51.966;5.676;2023-03-31T16:47:25;12.8;75.5
78704;SHT31;68034;51.966;5.676;2023-03-31T16:49:54;12.8;75.6
78704;SHT31;68034;51.966;5.676;2023-03-31T16:52:26;12.8;75.5
78704;SHT31;68034;51.966;5.676;2023-03-31T16:55:02;12.7;75.9
78704;SHT31;68034;51.966;5.676;2023-03-31T16:57:31;12.7;75.9
78704;SHT31;68034;51.966;5.676;2023-03-31T17:00:00;12.7;75.9
78704;SHT31;68034;51.966;5.676;2023-03-31T17:02:29;12.7;76.2
78704;SHT31;68034;51.966;5.676;2023-03-31T17:04:58;12.7;76.1
78704;SHT31;68034;51.966;5.676;2023-03-31T17:07:27;12.6;76.9
78704;SHT31;68034;51.966;5.676;2023-03-31T17:09:59;12.6;76.8
78704;SHT31;68034;51.966;5.676;2023-03-31T17:12:28;12.6;77.0
78704;SHT31;68034;51.966;5.676;2023-03-31T17:14:57;12.5;77.1
78704;SHT31;68034;51.966;5.676;2023-03-31T17:17:28;12.5;77.1
78704;SHT31;68034;51.966;5.676;2023-03-31T17:19:57;12.5;77.3
78704;SHT31;68034;51.966;5.676;2023-03-31T17:22:26;12.5;77.1
78704;SHT31;68034;51.966;5.676;2023-03-31T17:24:56;12.4;77.6
78704;SHT31;68034;51.966;5.676;2023-03-31T17:27:25;12.4;77.9
78704;SHT31;68034;51.966;5.676;2023-03-31T17:29:55;12.4;77.9
78704;SHT31;68034;51.966;5.676;2023-03-31T17:32:24;12.4;77.9
78704;SHT31;68034;51.966;5.676;2023-03-31T17:34:57;12.4;78.2
78704;SHT31;68034;51.966;5.676;2023-03-31T17:37:27;12.4;77.8
78704;SHT31;68034;51.966;5.676;2023-03-31T17:39:57;12.4;77.6
78704;SHT31;68034;51.966;5.676;2023-03-31T17:42:26;12.4;78.1
78704;SHT31;68034;51.966;5.676;2023-03-31T17:44:55;12.4;78.1
78704;SHT31;68034;51.966;5.676;2023-03-31T17:47:29;12.3;78.1
78704;SHT31;68034;51.966;5.676;2023-03-31T17:50:01;12.3;78.1
78704;SHT31;68034;51.966;5.676;2023-03-31T17:52:30;12.3;78.1
78704;SHT31;68034;51.966;5.676;2023-03-31T17:55:00;12.3;78.1
78704;SHT31;68034;51.966;5.676;2023-03-31T17:57:29;12.3;77.9
78704;SHT31;68034;51.966;5.676;2023-03-31T17:59:58;12.3;78.1
78704;SHT31;68034;51.966;5.676;2023-03-31T18:02:28;12.3;78.1
78704;SHT31;68034;51.966;5.676;2023-03-31T18:04:58;12.3;78.2
78704;SHT31;68034;51.966;5.676;2023-03-31T18:07:27;12.3;78.3
78704;SHT31;68034;51.966;5.676;2023-03-31T18:10:00;12.4;78.2
78704;SHT31;68034;51.966;5.676;2023-03-31T18:12:31;12.3;78.2
78704;SHT31;68034;51.966;5.676;2023-03-31T18:15:00;12.3;78.4
78704;SHT31;68034;51.966;5.676;2023-03-31T18:17:32;12.3;78.5
78704;SHT31;68034;51.966;5.676;2023-03-31T18:20:02;12.3;78.8
78704;SHT31;68034;51.966;5.676;2023-03-31T18:22:38;12.3;79.0
78704;SHT31;68034;51.966;5.676;2023-03-31T18:25:09;12.3;78.7
78704;SHT31;68034;51.966;5.676;2023-03-31T18:27:38;12.3;78.8
78704;SHT31;68034;51.966;5.676;2023-03-31T18:30:08;12.2;79.2
78704;SHT31;68034;51.966;5.676;2023-03-31T18:32:37;12.2;79.3
78704;SHT31;68034;51.966;5.676;2023-03-31T18:35:08;12.2;79.5
78704;SHT31;68034;51.966;5.676;2023-03-31T18:37:37;12.2;79.8
78704;SHT31;68034;51.966;5.676;2023-03-31T18:40:10;12.1;79.9
78704;SHT31;68034;51.966;5.676;2023-03-31T18:42:40;12.1;80.1
78704;SHT31;68034;51.966;5.676;2023-03-31T18:45:12;12.1;79.9
78704;SHT31;68034;51.966;5.676;2023-03-31T18:47:42;12.1;79.8
78704;SHT31;68034;51.966;5.676;2023-03-31T18:50:12;12.1;80.0
78704;SHT31;68034;51.966;5.676;2023-03-31T18:52:48;12.1;80.0
78704;SHT31;68034;51.966;5.676;2023-03-31T18:55:26;12.1;80.2
78704;SHT31;68034;51.966;5.676;2023-03-31T18:59:36;12.1;80.1
78704;SHT31;68034;51.966;5.676;2023-03-31T19:02:08;12.1;80.2
78704;SHT31;68034;51.966;5.676;2023-03-31T19:04:37;12.1;79.9
78704;SHT31;68034;51.966;5.676;2023-03-31T19:07:07;12.1;80.1
78704;SHT31;68034;51.966;5.676;2023-03-31T19:09:38;12.0;79.9
78704;SHT31;68034;51.966;5.676;2023-03-31T19:12:08;12.0;80.1
78704;SHT31;68034;51.966;5.676;2023-03-31T19:14:38;12.0;80.0
78704;SHT31;68034;51.966;5.676;2023-03-31T19:17:08;12.1;79.8
78704;SHT31;68034;51.966;5.676;2023-03-31T19:19:38;12.1;79.5
78704;SHT31;68034;51.966;5.676;2023-03-31T19:22:09;12.1;79.8
78704;SHT31;68034;51.966;5.676;2023-03-31T19:24:38;12.1;80.0
78704;SHT31;68034;51.966;5.676;2023-03-31T19:27:09;12.1;80.0
78704;SHT31;68034;51.966;5.676;2023-03-31T19:29:39;12.1;79.9
78704;SHT31;68034;51.966;5.676;2023-03-31T19:32:08;12.1;79.9
78704;SHT31;68034;51.966;5.676;2023-03-31T19:34:38;12.1;79.9
78704;SHT31;68034;51.966;5.676;2023-03-31T19:37:09;12.1;79.8
78704;SHT31;68034;51.966;5.676;2023-03-31T19:39:45;12.1;79.8
78704;SHT31;68034;51.966;5.676;2023-03-31T19:42:14;12.1;79.8
78704;SHT31;68034;51.966;5.676;2023-03-31T19:44:45;12.1;79.9
78704;SHT31;68034;51.966;5.676;2023-03-31T19:47:13;12.1;79.7
78704;SHT31;68034;51.966;5.676;2023-03-31T19:49:43;12.1;79.8
78704;SHT31;68034;51.966;5.676;2023-03-31T19:52:12;12.1;79.7
78704;SHT31;68034;51.966;5.676;2023-03-31T19:54:44;12.1;79.9
78704;SHT31;68034;51.966;5.676;2023-03-31T19:57:14;12.1;79.7
78704;SHT31;68034;51.966;5.676;2023-03-31T19:59:43;12.1;79.7
78704;SHT31;68034;51.966;5.676;2023-03-31T20:02:12;12.1;79.5
78704;SHT31;68034;51.966;5.676;2023-03-31T20:04:46;12.1;79.6
78704;SHT31;68034;51.966;5.676;2023-03-31T20:07:18;12.1;79.4
78704;SHT31;68034;51.966;5.676;2023-03-31T20:09:47;12.1;79.5
78704;SHT31;68034;51.966;5.676;2023-03-31T20:12:17;12.1;79.4
78704;SHT31;68034;51.966;5.676;2023-03-31T20:14:46;12.1;79.7
78704;SHT31;68034;51.966;5.676;2023-03-31T20:17:15;12.1;79.9
78704;SHT31;68034;51.966;5.676;2023-03-31T20:19:46;12.0;79.8
78704;SHT31;68034;51.966;5.676;2023-03-31T20:22:15;12.0;79.9
78704;SHT31;68034;51.966;5.676;2023-03-31T20:24:44;12.0;80.0
78704;SHT31;68034;51.966;5.676;2023-03-31T20:27:13;12.0;79.9
78704;SHT31;68034;51.966;5.676;2023-03-31T20:29:43;12.0;80.1
78704;SHT31;68034;51.966;5.676;2023-03-31T20:32:12;12.0;79.9
78704;SHT31;68034;51.966;5.676;2023-03-31T20:34:42;12.0;80.2
78704;SHT31;68034;51.966;5.676;2023-03-31T20:37:12;11.9;80.0
78704;SHT31;68034;51.966;5.676;2023-03-31T20:39:47;11.9;80.2
78704;SHT31;68034;51.966;5.676;2023-03-31T20:42:26;11.9;80.3
78704;SHT31;68034;51.966;5.676;2023-03-31T20:44:57;11.9;80.2
78704;SHT31;68034;51.966;5.676;2023-03-31T20:47:25;11.9;80.5
78704;SHT31;68034;51.966;5.676;2023-03-31T20:50:01;11.9;80.6
78704;SHT31;68034;51.966;5.676;2023-03-31T20:52:30;11.9;80.7
78704;SHT31;68034;51.966;5.676;2023-03-31T20:54:58;11.9;80.7
78704;SHT31;68034;51.966;5.676;2023-03-31T20:57:27;11.9;80.4
78704;SHT31;68034;51.966;5.676;2023-03-31T20:59:58;11.9;80.6
78704;SHT31;68034;51.966;5.676;2023-03-31T21:02:29;11.9;80.5
78704;SHT31;68034;51.966;5.676;2023-03-31T21:04:58;11.9;80.5
78704;SHT31;68034;51.966;5.676;2023-03-31T21:07:28;11.9;80.3
78704;SHT31;68034;51.966;5.676;2023-03-31T21:09:57;11.9;80.4
78704;SHT31;68034;51.966;5.676;2023-03-31T21:12:29;11.8;80.6
78704;SHT31;68034;51.966;5.676;2023-03-31T21:14:58;11.8;80.5
78704;SHT31;68034;51.966;5.676;2023-03-31T21:17:28;11.8;80.4
78704;SHT31;68034;51.966;5.676;2023-03-31T21:19:56;11.8;80.4
78704;SHT31;68034;51.966;5.676;2023-03-31T21:22:30;11.8;80.8
78704;SHT31;68034;51.966;5.676;2023-03-31T21:24:58;11.8;81.0
78704;SHT31;68034;51.966;5.676;2023-03-31T21:27:28;11.8;80.7
78704;SHT31;68034;51.966;5.676;2023-03-31T21:30:29;11.8;81.1
78704;SHT31;68034;51.966;5.676;2023-03-31T21:32:58;11.8;81.0
78704;SHT31;68034;51.966;5.676;2023-03-31T21:35:38;11.7;81.1
78704;SHT31;68034;51.966;5.676;2023-03-31T21:41:17;11.7;81.1
78704;SHT31;68034;51.966;5.676;2023-03-31T21:44:09;11.7;81.2
78704;SHT31;68034;51.966;5.676;2023-03-31T21:46:38;11.7;80.9
78704;SHT31;68034;51.966;5.676;2023-03-31T21:51:54;11.8;80.9
78704;SHT31;68034;51.966;5.676;2023-03-31T22:01:45;11.8;80.5
78704;SHT31;68034;51.966;5.676;2023-03-31T22:04:49;11.9;80.4
78704;SHT31;68034;51.966;5.676;2023-03-31T22:09:20;11.9;80.3
78704;SHT31;68034;51.966;5.676;2023-03-31T22:19:02;11.9;80.2
78704;SHT31;68034;51.966;5.676;2023-03-31T22:23:40;11.9;80.2
78704;SHT31;68034;51.966;5.676;2023-03-31T22:37:13;11.8;80.6
78704;SHT31;68034;51.966;5.676;2023-03-31T23:17:30;12.0;80.2
78704;SHT31;68034;51.966;5.676;2023-03-31T23:28:53;12.0;80.3
78704;SHT31;68034;51.966;5.676;2023-03-31T23:35:24;12.0;80.4
